createdAt,value
2019-05-30T00:00:55.824Z,46.50
2019-05-30T00:03:24.412Z,46.59
2019-05-30T00:05:54.165Z,46.65
2019-05-30T00:08:22.734Z,46.69
2019-05-30T00:10:51.208Z,46.74
2019-05-30T00:13:19.727Z,46.71
2019-05-30T00:15:48.216Z,46.94
2019-05-30T00:18:16.982Z,46.98
2019-05-30T00:20:45.790Z,46.91
2019-05-30T00:23:14.289Z,46.88
2019-05-30T00:25:42.767Z,47.09
2019-05-30T00:28:11.247Z,47.26
2019-05-30T00:30:39.723Z,47.33
2019-05-30T00:33:08.235Z,47.57
2019-05-30T00:35:36.729Z,47.62
2019-05-30T00:38:06.077Z,47.75
2019-05-30T00:40:34.642Z,47.90
2019-05-30T00:43:04.236Z,48.22
2019-05-30T00:45:32.823Z,48.25
2019-05-30T00:48:02.252Z,48.33
2019-05-30T00:50:30.802Z,48.27
2019-05-30T00:52:59.280Z,48.17
2019-05-30T00:55:27.754Z,48.27
2019-05-30T00:57:56.742Z,48.50
2019-05-30T01:00:42.088Z,48.71
2019-05-30T01:02:59.377Z,48.66
2019-05-30T01:05:27.263Z,48.50
2019-05-30T01:07:56.714Z,48.67
2019-05-30T01:10:25.267Z,48.72
2019-05-30T01:12:53.738Z,48.99
2019-05-30T01:15:22.212Z,48.99
2019-05-30T01:17:50.718Z,48.93
2019-05-30T01:20:19.199Z,49.02
2019-05-30T01:22:47.694Z,49.02
2019-05-30T01:25:16.538Z,49.08
2019-05-30T01:27:45.318Z,49.39
2019-05-30T01:30:13.833Z,49.34
2019-05-30T01:32:42.306Z,49.44
2019-05-30T01:35:10.891Z,49.50
2019-05-30T01:37:39.376Z,49.59
2019-05-30T01:40:08.695Z,49.72
2019-05-30T01:42:37.681Z,49.75
2019-05-30T01:45:06.399Z,49.96
2019-05-30T01:47:34.874Z,49.92
2019-05-30T01:50:04.388Z,49.95
2019-05-30T01:52:33.175Z,49.98
2019-05-30T01:55:02.759Z,49.96
2019-05-30T01:57:31.346Z,50.07
2019-05-30T02:00:00.799Z,50.17
2019-05-30T02:02:29.283Z,50.26
2019-05-30T02:04:58.828Z,50.29
2019-05-30T02:07:27.444Z,50.55
2019-05-30T02:09:55.922Z,50.46
2019-05-30T02:12:24.406Z,50.30
2019-05-30T02:14:52.915Z,50.25
2019-05-30T02:17:21.385Z,50.38
2019-05-30T02:19:49.913Z,50.48
2019-05-30T02:22:18.338Z,50.66
2019-05-30T02:24:46.822Z,50.65
2019-05-30T02:27:15.387Z,50.66
2019-05-30T02:29:43.836Z,50.70
2019-05-30T02:32:12.677Z,50.61
2019-05-30T02:34:41.174Z,50.68
2019-05-30T02:37:10.850Z,51.01
2019-05-30T02:39:40.082Z,50.96
2019-05-30T02:42:09.657Z,51.07
2019-05-30T02:44:38.634Z,51.15
2019-05-30T02:47:07.498Z,51.04
2019-05-30T02:49:36.349Z,51.22
2019-05-30T02:52:06.906Z,51.37
2019-05-30T02:54:35.062Z,51.48
2019-05-30T02:57:03.770Z,51.33
2019-05-30T02:59:33.516Z,51.41
2019-05-30T03:02:05.268Z,51.53
2019-05-30T03:04:32.224Z,51.49
2019-05-30T03:07:01.971Z,51.49
2019-05-30T03:09:30.910Z,51.54
2019-05-30T03:11:59.390Z,51.65
2019-05-30T03:14:28.088Z,51.60
2019-05-30T03:16:56.561Z,51.70
2019-05-30T03:19:25.060Z,51.70
2019-05-30T03:21:53.794Z,51.70
2019-05-30T03:24:22.300Z,51.50
2019-05-30T03:26:50.785Z,51.49
2019-05-30T03:29:19.507Z,51.73
2019-05-30T03:31:48.003Z,51.40
2019-05-30T03:34:26.165Z,51.33
2019-05-30T03:36:46.753Z,51.28
2019-05-30T03:39:15.588Z,51.28
2019-05-30T03:41:44.383Z,51.33
2019-05-30T03:44:13.878Z,51.27
2019-05-30T03:46:47.293Z,51.22
2019-05-30T03:49:18.154Z,51.27
2019-05-30T03:51:46.906Z,51.32
2019-05-30T03:54:16.019Z,51.28
2019-05-30T03:56:47.787Z,51.31
2019-05-30T03:59:26.796Z,51.38
2019-05-30T04:02:02.813Z,51.24
2019-05-30T04:04:33.990Z,51.49
2019-05-30T04:07:03.911Z,51.52
2019-05-30T04:09:32.373Z,51.54
2019-05-30T04:12:12.706Z,51.49
2019-05-30T04:14:42.545Z,51.79
2019-05-30T04:17:13.575Z,51.59
2019-05-30T04:19:41.229Z,51.68
2019-05-30T04:22:11.428Z,51.59
2019-05-30T04:24:40.136Z,51.71
2019-05-30T04:27:09.914Z,51.88
2019-05-30T04:29:38.995Z,51.75
2019-05-30T04:32:08.460Z,51.93
2019-05-30T04:34:37.708Z,51.85
2019-05-30T04:37:06.201Z,51.96
2019-05-30T04:39:34.695Z,52.07
2019-05-30T04:42:03.199Z,52.03
2019-05-30T04:44:31.689Z,52.01
2019-05-30T04:47:00.232Z,52.13
2019-05-30T04:49:28.731Z,52.31
2019-05-30T04:51:57.250Z,52.23
2019-05-30T04:54:26.041Z,52.24
2019-05-30T04:56:54.524Z,52.12
2019-05-30T04:59:23.084Z,52.21
2019-05-30T05:01:51.748Z,52.21
2019-05-30T05:04:21.666Z,52.29
2019-05-30T05:06:50.322Z,52.29
2019-05-30T05:09:20.258Z,52.43
2019-05-30T05:11:49.195Z,52.43
2019-05-30T05:14:18.483Z,52.50
2019-05-30T05:16:47.306Z,52.55
2019-05-30T05:19:17.193Z,52.62
2019-05-30T05:21:46.084Z,52.45
2019-05-30T05:24:15.326Z,52.43
2019-05-30T05:26:44.046Z,52.45
2019-05-30T05:29:13.980Z,52.58
2019-05-30T05:31:42.854Z,52.66
2019-05-30T05:34:11.342Z,52.69
2019-05-30T05:36:39.828Z,52.66
2019-05-30T05:39:08.343Z,52.61
2019-05-30T05:41:36.823Z,52.66
2019-05-30T05:44:05.291Z,52.56
2019-05-30T05:46:33.804Z,52.65
2019-05-30T05:49:02.269Z,52.70
2019-05-30T05:51:30.753Z,52.98
2019-05-30T05:53:59.253Z,52.94
2019-05-30T05:56:29.049Z,52.74
2019-05-30T05:58:57.626Z,52.88
2019-05-30T06:01:26.102Z,52.90
2019-05-30T06:03:54.861Z,53.13
2019-05-30T06:06:23.531Z,53.02
2019-05-30T06:08:52.090Z,53.32
2019-05-30T06:11:20.619Z,52.82
2019-05-30T06:13:49.057Z,53.02
2019-05-30T06:16:17.944Z,53.09
2019-05-30T06:18:46.484Z,54.53
2019-05-30T06:21:14.947Z,53.30
2019-05-30T06:23:45.619Z,53.26
2019-05-30T06:26:13.635Z,53.19
2019-05-30T06:28:42.158Z,53.09
2019-05-30T06:31:10.924Z,53.31
2019-05-30T06:33:39.463Z,53.17
2019-05-30T06:36:08.302Z,53.27
2019-05-30T06:38:36.803Z,53.26
2019-05-30T06:41:05.267Z,53.50
2019-05-30T06:43:33.809Z,53.40
2019-05-30T06:46:02.274Z,53.54
2019-05-30T06:48:31.032Z,53.63
2019-05-30T06:50:59.543Z,53.51
2019-05-30T06:53:29.249Z,53.57
2019-05-30T06:55:57.903Z,53.71
2019-05-30T06:58:41.426Z,53.56
2019-05-30T07:00:56.599Z,53.71
2019-05-30T07:03:26.264Z,53.70
2019-05-30T07:05:55.607Z,53.80
2019-05-30T07:08:24.759Z,53.73
2019-05-30T07:10:53.194Z,53.80
2019-05-30T07:13:23.100Z,53.92
2019-05-30T07:15:51.835Z,53.90
2019-05-30T07:18:20.323Z,54.06
2019-05-30T07:20:48.838Z,53.97
2019-05-30T07:23:17.630Z,53.88
2019-05-30T07:25:46.425Z,53.94
2019-05-30T07:28:14.905Z,53.79
2019-05-30T07:30:43.363Z,53.80
2019-05-30T07:33:11.846Z,53.97
2019-05-30T07:35:40.636Z,53.77
2019-05-30T07:38:09.400Z,53.68
2019-05-30T07:40:38.122Z,53.63
2019-05-30T07:43:06.729Z,53.45
2019-05-30T07:45:35.293Z,53.36
2019-05-30T07:48:03.764Z,53.43
2019-05-30T07:50:32.603Z,53.49
2019-05-30T07:53:01.204Z,53.63
2019-05-30T07:55:30.993Z,53.54
2019-05-30T07:57:59.599Z,53.70
2019-05-30T08:00:29.237Z,53.84
2019-05-30T08:02:57.865Z,53.73
2019-05-30T08:05:26.825Z,54.08
2019-05-30T08:07:55.719Z,54.15
2019-05-30T08:10:24.212Z,54.03
2019-05-30T08:12:53.173Z,54.21
2019-05-30T08:15:21.657Z,54.11
2019-05-30T08:17:50.116Z,54.07
2019-05-30T08:20:19.013Z,54.08
2019-05-30T08:22:47.503Z,54.01
2019-05-30T08:25:15.991Z,54.48
2019-05-30T08:27:44.501Z,54.89
2019-05-30T08:30:13.492Z,55.13
2019-05-30T08:32:42.222Z,55.46
2019-05-30T08:35:10.684Z,55.80
2019-05-30T08:37:39.450Z,55.84
2019-05-30T08:40:07.971Z,55.97
2019-05-30T08:42:38.206Z,56.72
2019-05-30T08:45:09.972Z,57.11
2019-05-30T08:47:38.153Z,56.84
2019-05-30T08:50:06.688Z,56.70
2019-05-30T08:52:36.357Z,57.23
2019-05-30T08:55:05.130Z,58.02
2019-05-30T08:57:35.052Z,58.24
2019-05-30T09:00:03.824Z,57.97
2019-05-30T09:02:32.325Z,58.45
2019-05-30T09:05:01.057Z,59.13
2019-05-30T09:07:31.736Z,59.52
2019-05-30T09:09:59.760Z,59.75
2019-05-30T09:12:28.528Z,60.15
2019-05-30T09:14:57.019Z,61.29
2019-05-30T09:17:25.777Z,61.69
2019-05-30T09:19:54.257Z,62.27
2019-05-30T09:22:23.039Z,62.54
2019-05-30T09:24:51.858Z,61.56
2019-05-30T09:27:20.334Z,61.98
2019-05-30T09:29:48.819Z,63.87
2019-05-30T09:32:17.323Z,63.71
2019-05-30T09:34:46.975Z,62.75
2019-05-30T09:37:16.007Z,64.04
2019-05-30T09:39:45.516Z,63.46
2019-05-30T09:42:14.391Z,63.46
2019-05-30T09:44:45.772Z,64.13
2019-05-30T09:47:13.607Z,63.61
2019-05-30T09:49:43.154Z,63.26
2019-05-30T09:52:12.061Z,63.51
2019-05-30T09:54:41.156Z,63.60
2019-05-30T09:57:10.926Z,64.58
2019-05-30T09:59:39.385Z,63.99
2019-05-30T10:02:07.864Z,64.42
2019-05-30T10:04:36.664Z,65.01
2019-05-30T10:07:05.182Z,64.12
2019-05-30T10:09:33.665Z,64.46
2019-05-30T10:12:02.140Z,64.20
2019-05-30T10:14:30.640Z,64.32
2019-05-30T10:16:59.490Z,64.59
2019-05-30T10:19:27.982Z,64.50
2019-05-30T10:21:57.284Z,65.44
2019-05-30T10:24:25.905Z,64.63
2019-05-30T10:26:54.400Z,64.48
2019-05-30T10:29:22.896Z,65.10
2019-05-30T10:31:52.624Z,64.75
2019-05-30T10:34:21.117Z,64.96
2019-05-30T10:36:50.298Z,64.69
2019-05-30T10:39:19.117Z,65.02
2019-05-30T10:41:48.952Z,64.97
2019-05-30T10:44:17.535Z,65.01
2019-05-30T10:46:47.150Z,64.72
2019-05-30T10:49:16.207Z,64.84
2019-05-30T10:51:46.142Z,65.34
2019-05-30T10:54:15.092Z,65.35
2019-05-30T10:56:43.592Z,65.42
2019-05-30T10:59:12.040Z,65.04
2019-05-30T11:01:40.529Z,65.12
2019-05-30T11:04:09.025Z,65.03
2019-05-30T11:07:06.853Z,64.70
2019-05-30T11:09:20.804Z,64.58
2019-05-30T11:11:50.679Z,64.49
2019-05-30T11:14:19.271Z,64.57
2019-05-30T11:16:48.911Z,64.38
2019-05-30T11:19:18.326Z,64.92
2019-05-30T11:21:47.856Z,64.74
2019-05-30T11:24:16.343Z,64.65
2019-05-30T11:26:44.820Z,64.53
2019-05-30T11:29:13.268Z,64.33
2019-05-30T11:31:42.035Z,64.39
2019-05-30T11:34:10.543Z,64.37
2019-05-30T11:36:39.035Z,64.06
2019-05-30T11:39:07.516Z,64.24
2019-05-30T11:41:36.030Z,64.13
2019-05-30T11:44:04.509Z,63.93
2019-05-30T11:46:32.981Z,63.80
2019-05-30T11:49:01.743Z,64.04
2019-05-30T11:51:30.219Z,63.90
2019-05-30T11:53:58.919Z,64.13
2019-05-30T11:56:27.575Z,64.06
2019-05-30T11:58:58.070Z,64.07
2019-05-30T12:01:26.547Z,63.95
2019-05-30T12:03:55.029Z,64.09
2019-05-30T12:06:23.518Z,64.03
2019-05-30T12:08:52.779Z,64.04
2019-05-30T12:11:21.346Z,64.13
2019-05-30T12:13:51.747Z,64.10
2019-05-30T12:16:20.309Z,63.97
2019-05-30T12:18:48.818Z,63.98
2019-05-30T12:21:17.287Z,64.03
2019-05-30T12:23:46.039Z,64.09
2019-05-30T12:26:14.551Z,64.11
2019-05-30T12:28:43.255Z,64.15
2019-05-30T12:31:11.775Z,64.23
2019-05-30T12:33:40.254Z,64.14
2019-05-30T12:36:08.755Z,64.57
2019-05-30T12:38:37.484Z,64.36
2019-05-30T12:41:05.989Z,64.72
2019-05-30T12:43:34.458Z,65.64
2019-05-30T12:46:03.315Z,66.39
2019-05-30T12:48:31.863Z,67.27
2019-05-30T12:51:01.462Z,66.77
2019-05-30T12:53:29.891Z,66.50
2019-05-30T12:55:58.539Z,67.17
2019-05-30T12:58:26.927Z,67.30
2019-05-30T13:00:56.582Z,67.61
2019-05-30T13:03:25.102Z,67.52
2019-05-30T13:05:55.045Z,67.68
2019-05-30T13:08:23.869Z,68.29
2019-05-30T13:10:52.604Z,68.50
2019-05-30T13:13:21.449Z,68.80
2019-05-30T13:15:49.924Z,68.97
2019-05-30T13:18:18.422Z,69.86
2019-05-30T13:20:46.912Z,69.17
2019-05-30T13:23:15.369Z,70.85
2019-05-30T13:25:43.876Z,70.21
2019-05-30T13:28:12.362Z,70.32
2019-05-30T13:30:40.848Z,69.68
2019-05-30T13:33:09.320Z,70.75
2019-05-30T13:35:37.807Z,70.06
2019-05-30T13:38:07.369Z,70.04
2019-05-30T13:40:35.948Z,70.28
2019-05-30T13:43:04.447Z,70.54
2019-05-30T13:45:32.953Z,70.04
2019-05-30T13:48:02.514Z,70.41
2019-05-30T13:50:31.186Z,70.68
2019-05-30T13:53:00.844Z,71.28
2019-05-30T13:55:30.104Z,71.87
2019-05-30T13:57:59.525Z,71.42
2019-05-30T14:00:27.999Z,70.93
2019-05-30T14:02:56.485Z,70.87
2019-05-30T14:05:25.277Z,70.96
2019-05-30T14:07:53.772Z,71.46
2019-05-30T14:10:22.302Z,71.34
2019-05-30T14:12:51.131Z,71.31
2019-05-30T14:15:19.637Z,71.08
2019-05-30T14:17:48.129Z,72.35
2019-05-30T14:20:16.958Z,71.27
2019-05-30T14:22:45.437Z,71.56
2019-05-30T14:25:14.012Z,71.68
2019-05-30T14:27:43.072Z,71.53
2019-05-30T14:30:12.904Z,71.42
2019-05-30T14:32:41.944Z,71.34
2019-05-30T14:35:11.923Z,71.36
2019-05-30T14:37:40.974Z,71.25
2019-05-30T14:40:09.744Z,71.34
2019-05-30T14:42:39.275Z,71.09
2019-05-30T14:45:08.402Z,71.39
2019-05-30T14:47:36.986Z,71.48
2019-05-30T14:50:06.736Z,71.27
2019-05-30T14:52:35.268Z,71.42
2019-05-30T14:55:05.137Z,71.41
2019-05-30T14:57:33.649Z,71.27
2019-05-30T15:00:02.507Z,71.36
2019-05-30T15:02:31.024Z,71.93
2019-05-30T15:04:59.874Z,71.50
2019-05-30T15:07:28.397Z,71.33
2019-05-30T15:09:57.160Z,71.28
2019-05-30T15:12:25.651Z,71.12
2019-05-30T15:14:54.431Z,71.44
2019-05-30T15:17:22.938Z,71.38
2019-05-30T15:19:51.532Z,71.06
2019-05-30T15:22:20.293Z,71.08
2019-05-30T15:24:48.787Z,71.48
2019-05-30T15:27:20.610Z,71.30
2019-05-30T15:29:47.476Z,71.12
2019-05-30T15:32:16.578Z,71.53
2019-05-30T15:34:45.173Z,70.97
2019-05-30T15:37:14.839Z,71.22
2019-05-30T15:39:43.299Z,70.97
2019-05-30T15:42:12.179Z,70.86
2019-05-30T15:44:41.796Z,70.74
2019-05-30T15:47:10.285Z,70.75
2019-05-30T15:49:38.757Z,70.73
2019-05-30T15:52:08.632Z,70.44
2019-05-30T15:54:37.431Z,70.26
2019-05-30T15:57:05.959Z,70.19
2019-05-30T15:59:34.469Z,70.02
2019-05-30T16:02:02.953Z,69.90
2019-05-30T16:04:31.462Z,69.73
2019-05-30T16:06:59.944Z,69.48
2019-05-30T16:09:28.682Z,69.43
2019-05-30T16:11:57.179Z,69.60
2019-05-30T16:14:25.665Z,69.62
2019-05-30T16:16:54.160Z,69.67
2019-05-30T16:19:26.318Z,69.53
2019-05-30T16:21:52.882Z,69.30
2019-05-30T16:24:21.361Z,69.01
2019-05-30T16:26:50.611Z,68.94
2019-05-30T16:29:19.829Z,69.11
2019-05-30T16:31:48.266Z,69.27
2019-05-30T16:34:17.972Z,69.38
2019-05-30T16:36:46.839Z,69.44
2019-05-30T16:39:16.005Z,69.52
2019-05-30T16:41:44.823Z,69.46
2019-05-30T16:44:14.180Z,69.41
2019-05-30T16:46:42.682Z,69.46
2019-05-30T16:49:11.151Z,69.66
2019-05-30T16:51:39.650Z,69.60
2019-05-30T16:54:08.156Z,69.58
2019-05-30T16:56:36.627Z,69.77
2019-05-30T16:59:05.108Z,69.71
2019-05-30T17:01:33.644Z,69.67
2019-05-30T17:04:02.111Z,69.71
2019-05-30T17:06:30.595Z,69.70
2019-05-30T17:08:59.411Z,69.75
2019-05-30T17:11:27.898Z,69.89
2019-05-30T17:13:56.390Z,70.02
2019-05-30T17:16:26.286Z,69.91
2019-05-30T17:18:56.428Z,69.76
2019-05-30T17:21:24.868Z,69.70
2019-05-30T17:23:53.340Z,69.58
2019-05-30T17:26:23.181Z,69.69
2019-05-30T17:28:51.767Z,69.83
2019-05-30T17:31:20.270Z,69.80
2019-05-30T17:33:48.731Z,69.72
2019-05-30T17:36:18.078Z,69.58
2019-05-30T17:38:46.733Z,69.75
2019-05-30T17:41:15.230Z,69.65
2019-05-30T17:43:43.963Z,69.61
2019-05-30T17:46:12.512Z,69.65
2019-05-30T17:48:40.992Z,69.64
2019-05-30T17:51:09.463Z,69.77
2019-05-30T17:53:37.957Z,69.85
2019-05-30T17:56:06.474Z,69.82
2019-05-30T17:58:34.973Z,69.80
2019-05-30T18:01:03.453Z,69.73
2019-05-30T18:03:32.192Z,69.85
2019-05-30T18:06:00.675Z,69.80
2019-05-30T18:08:29.178Z,69.82
2019-05-30T18:10:57.638Z,69.89
2019-05-30T18:13:27.109Z,69.90
2019-05-30T18:15:55.740Z,70.08
2019-05-30T18:18:25.346Z,70.00
2019-05-30T18:20:53.939Z,70.18
2019-05-30T18:23:23.501Z,70.03
2019-05-30T18:25:52.354Z,70.09
2019-05-30T18:28:21.497Z,70.36
2019-05-30T18:30:50.747Z,70.32
2019-05-30T18:33:19.218Z,70.11
2019-05-30T18:35:47.673Z,70.18
2019-05-30T18:38:16.174Z,70.23
2019-05-30T18:40:44.654Z,70.30
2019-05-30T18:43:13.161Z,70.30
2019-05-30T18:45:41.903Z,70.30
2019-05-30T18:48:10.502Z,70.46
2019-05-30T18:50:39.398Z,70.68
2019-05-30T18:53:07.933Z,70.49
2019-05-30T18:55:37.046Z,70.56
2019-05-30T18:58:07.592Z,71.32
2019-05-30T19:00:36.006Z,70.76
2019-05-30T19:03:04.745Z,70.55
2019-05-30T19:05:33.548Z,70.88
2019-05-30T19:08:02.046Z,70.85
2019-05-30T19:10:30.514Z,71.12
2019-05-30T19:12:59.012Z,71.27
2019-05-30T19:15:29.999Z,71.23
2019-05-30T19:17:57.782Z,71.16
2019-05-30T19:20:26.265Z,71.16
2019-05-30T19:22:54.763Z,71.52
2019-05-30T19:25:23.263Z,71.66
2019-05-30T19:27:51.721Z,71.57
2019-05-30T19:30:20.229Z,71.52
2019-05-30T19:32:48.733Z,71.61
2019-05-30T19:35:17.225Z,71.50
2019-05-30T19:37:45.705Z,71.75
2019-05-30T19:40:14.315Z,71.67
2019-05-30T19:42:43.193Z,71.73
2019-05-30T19:45:11.752Z,71.59
2019-05-30T19:47:40.236Z,71.58
2019-05-30T19:50:10.870Z,71.53
2019-05-30T19:52:39.623Z,71.63
2019-05-30T19:55:08.091Z,71.73
2019-05-30T19:57:37.782Z,71.93
2019-05-30T20:00:06.722Z,72.23
2019-05-30T20:02:36.114Z,72.80
2019-05-30T20:05:05.128Z,72.90
2019-05-30T20:07:34.624Z,73.18
2019-05-30T20:10:03.173Z,73.20
2019-05-30T20:12:32.639Z,73.50
2019-05-30T20:15:01.217Z,73.33
2019-05-30T20:17:30.162Z,73.39
2019-05-30T20:19:59.810Z,73.57
2019-05-30T20:22:28.319Z,73.64
2019-05-30T20:24:57.055Z,73.46
2019-05-30T20:27:25.534Z,73.70
2019-05-30T20:29:54.004Z,73.56
2019-05-30T20:32:22.556Z,73.33
2019-05-30T20:34:51.336Z,73.63
2019-05-30T20:37:19.910Z,73.58
2019-05-30T20:39:48.954Z,73.63
2019-05-30T20:42:19.468Z,73.68
2019-05-30T20:44:48.093Z,73.67
2019-05-30T20:47:16.569Z,73.67
2019-05-30T20:49:45.349Z,73.65
2019-05-30T20:52:13.839Z,73.49
2019-05-30T20:54:43.623Z,73.69
2019-05-30T20:57:12.146Z,74.06
2019-05-30T20:59:40.732Z,73.64
2019-05-30T21:02:09.314Z,73.53
2019-05-30T21:04:38.812Z,73.72
2019-05-30T21:07:07.372Z,73.60
2019-05-30T21:09:36.021Z,73.70
2019-05-30T21:12:04.517Z,74.01
2019-05-30T21:14:33.454Z,73.86
2019-05-30T21:17:02.019Z,73.71
2019-05-30T21:19:30.518Z,74.07
2019-05-30T21:21:59.013Z,73.90
2019-05-30T21:24:27.473Z,73.86
2019-05-30T21:26:55.990Z,73.86
2019-05-30T21:29:24.547Z,74.22
2019-05-30T21:31:53.035Z,74.41
2019-05-30T21:34:21.534Z,74.29
2019-05-30T21:36:50.006Z,74.27
2019-05-30T21:39:18.448Z,74.43
2019-05-30T21:41:46.946Z,74.23
2019-05-30T21:44:15.447Z,74.46
2019-05-30T21:46:44.733Z,74.32
2019-05-30T21:49:13.324Z,74.45
2019-05-30T21:51:41.811Z,74.55
2019-05-30T21:54:10.403Z,74.56
2019-05-30T21:56:39.935Z,74.65
2019-05-30T21:59:08.480Z,74.58
2019-05-30T22:01:37.654Z,74.71
2019-05-30T22:04:06.209Z,74.63
2019-05-30T22:06:34.749Z,74.53
2019-05-30T22:09:03.989Z,74.61
2019-05-30T22:11:32.464Z,74.87
2019-05-30T22:14:00.978Z,74.90
2019-05-30T22:16:29.485Z,75.16
2019-05-30T22:18:57.965Z,75.01
2019-05-30T22:21:26.465Z,74.97
2019-05-30T22:23:54.939Z,75.20
2019-05-30T22:26:23.438Z,75.25
2019-05-30T22:28:52.714Z,75.17
2019-05-30T22:31:21.292Z,75.19
2019-05-30T22:33:51.508Z,75.11
2019-05-30T22:36:20.574Z,75.15
2019-05-30T22:38:49.383Z,75.33
2019-05-30T22:41:17.902Z,75.35
2019-05-30T22:43:46.384Z,74.96
2019-05-30T22:46:14.852Z,75.23
2019-05-30T22:48:44.405Z,75.45
2019-05-30T22:51:13.199Z,75.27
2019-05-30T22:53:41.704Z,75.19
2019-05-30T22:56:10.475Z,75.22
2019-05-30T22:58:38.968Z,75.11
2019-05-30T23:01:07.475Z,75.23
2019-05-30T23:03:35.944Z,75.15
2019-05-30T23:06:04.434Z,75.28
2019-05-30T23:08:32.894Z,75.26
2019-05-30T23:11:01.380Z,75.20
2019-05-30T23:13:40.184Z,74.91
2019-05-30T23:16:00.113Z,74.93
2019-05-30T23:18:28.587Z,74.88
2019-05-30T23:20:57.100Z,74.90
2019-05-30T23:23:25.584Z,74.85
2019-05-30T23:25:55.339Z,75.03
2019-05-30T23:28:23.922Z,74.90
2019-05-30T23:30:52.414Z,75.05
2019-05-30T23:33:20.898Z,74.99
2019-05-30T23:35:50.269Z,74.94
2019-05-30T23:38:18.760Z,75.07
2019-05-30T23:40:47.245Z,75.04
2019-05-30T23:43:15.717Z,75.14
2019-05-30T23:45:44.226Z,75.18
2019-05-30T23:48:12.760Z,75.22
2019-05-30T23:50:41.261Z,75.27
2019-05-30T23:53:09.724Z,75.14
2019-05-30T23:55:38.202Z,75.32
2019-05-30T23:58:06.711Z,75.34
